sensor_id;sensor_type;location;lat;lon;timestamp;temperature;humidity
7077;DHT22;3579;48.956;9.154;2024-03-06T00:02:08;19.10;59.30
7077;DHT22;3579;48.956;9.154;2024-03-06T00:04:35;19.10;58.70
7077;DHT22;3579;48.956;9.154;2024-03-06T00:07:01;19.10;58.70
7077;DHT22;3579;48.956;9.154;2024-03-06T00:09:27;19.00;58.60
7077;DHT22;3579;48.956;9.154;2024-03-06T00:11:54;19.00;58.60
7077;DHT22;3579;48.956;9.154;2024-03-06T00:14:21;19.00;58.70
7077;DHT22;3579;48.956;9.154;2024-03-06T00:16:48;19.00;58.70
7077;DHT22;3579;48.956;9.154;2024-03-06T00:19:19;19.00;58.70
7077;DHT22;3579;48.956;9.154;2024-03-06T00:21:46;19.00;58.70
7077;DHT22;3579;48.956;9.154;2024-03-06T00:24:15;19.00;58.70
7077;DHT22;3579;48.956;9.154;2024-03-06T00:26:45;19.00;58.70
7077;DHT22;3579;48.956;9.154;2024-03-06T00:29:11;19.00;58.80
7077;DHT22;3579;48.956;9.154;2024-03-06T00:31:47;19.00;58.80
7077;DHT22;3579;48.956;9.154;2024-03-06T00:34:13;19.00;58.80
7077;DHT22;3579;48.956;9.154;2024-03-06T00:36:40;19.00;58.80
7077;DHT22;3579;48.956;9.154;2024-03-06T00:39:06;18.90;59.30
7077;DHT22;3579;48.956;9.154;2024-03-06T00:41:34;18.90;58.70
7077;DHT22;3579;48.956;9.154;2024-03-06T00:44:01;18.90;58.90
7077;DHT22;3579;48.956;9.154;2024-03-06T00:46:27;18.90;58.80
7077;DHT22;3579;48.956;9.154;2024-03-06T00:48:54;18.90;58.80
7077;DHT22;3579;48.956;9.154;2024-03-06T00:51:20;18.90;58.90
7077;DHT22;3579;48.956;9.154;2024-03-06T00:53:46;18.90;58.90
7077;DHT22;3579;48.956;9.154;2024-03-06T00:56:12;18.90;58.90
7077;DHT22;3579;48.956;9.154;2024-03-06T00:58:37;18.90;58.80
7077;DHT22;3579;48.956;9.154;2024-03-06T01:01:03;18.90;58.80
7077;DHT22;3579;48.956;9.154;2024-03-06T01:03:30;18.90;58.80
7077;DHT22;3579;48.956;9.154;2024-03-06T01:05:56;18.90;58.90
7077;DHT22;3579;48.956;9.154;2024-03-06T01:08:22;18.80;58.80
7077;DHT22;3579;48.956;9.154;2024-03-06T01:10:51;18.80;58.80
7077;DHT22;3579;48.956;9.154;2024-03-06T01:13:18;18.80;58.80
7077;DHT22;3579;48.956;9.154;2024-03-06T01:15:44;18.80;58.90
7077;DHT22;3579;48.956;9.154;2024-03-06T01:18:11;18.80;58.90
7077;DHT22;3579;48.956;9.154;2024-03-06T01:20:37;18.80;58.90
7077;DHT22;3579;48.956;9.154;2024-03-06T01:23:03;18.80;58.90
7077;DHT22;3579;48.956;9.154;2024-03-06T01:25:29;18.80;58.90
7077;DHT22;3579;48.956;9.154;2024-03-06T01:27:56;18.80;59.00
7077;DHT22;3579;48.956;9.154;2024-03-06T01:30:22;18.80;59.00
7077;DHT22;3579;48.956;9.154;2024-03-06T01:32:48;18.80;58.90
7077;DHT22;3579;48.956;9.154;2024-03-06T01:35:14;18.80;58.90
7077;DHT22;3579;48.956;9.154;2024-03-06T01:37:40;18.80;59.00
7077;DHT22;3579;48.956;9.154;2024-03-06T01:40:06;18.70;58.90
7077;DHT22;3579;48.956;9.154;2024-03-06T01:42:33;18.70;58.90
7077;DHT22;3579;48.956;9.154;2024-03-06T01:44:59;18.70;58.90
7077;DHT22;3579;48.956;9.154;2024-03-06T01:47:25;18.70;59.00
7077;DHT22;3579;48.956;9.154;2024-03-06T01:49:51;18.70;58.90
7077;DHT22;3579;48.956;9.154;2024-03-06T01:52:19;18.70;59.00
7077;DHT22;3579;48.956;9.154;2024-03-06T01:54:48;18.70;59.00
7077;DHT22;3579;48.956;9.154;2024-03-06T01:57:17;18.70;59.00
7077;DHT22;3579;48.956;9.154;2024-03-06T01:59:43;18.70;59.00
7077;DHT22;3579;48.956;9.154;2024-03-06T02:02:10;18.70;59.00
7077;DHT22;3579;48.956;9.154;2024-03-06T02:04:38;18.70;59.00
7077;DHT22;3579;48.956;9.154;2024-03-06T02:07:08;18.70;59.00
7077;DHT22;3579;48.956;9.154;2024-03-06T02:09:36;18.70;59.10
7077;DHT22;3579;48.956;9.154;2024-03-06T02:12:02;18.60;59.00
7077;DHT22;3579;48.956;9.154;2024-03-06T02:14:29;18.60;59.00
7077;DHT22;3579;48.956;9.154;2024-03-06T02:16:55;18.60;59.00
7077;DHT22;3579;48.956;9.154;2024-03-06T02:19:21;18.60;59.00
7077;DHT22;3579;48.956;9.154;2024-03-06T02:21:48;18.70;59.20
7077;DHT22;3579;48.956;9.154;2024-03-06T02:24:14;18.60;59.00
7077;DHT22;3579;48.956;9.154;2024-03-06T02:26:40;18.60;59.10
7077;DHT22;3579;48.956;9.154;2024-03-06T02:29:08;18.60;59.10
7077;DHT22;3579;48.956;9.154;2024-03-06T02:31:34;18.60;59.10
7077;DHT22;3579;48.956;9.154;2024-03-06T02:34:00;18.60;59.10
7077;DHT22;3579;48.956;9.154;2024-03-06T02:36:30;18.60;59.10
7077;DHT22;3579;48.956;9.154;2024-03-06T02:38:56;18.60;59.10
7077;DHT22;3579;48.956;9.154;2024-03-06T02:41:22;18.60;59.10
7077;DHT22;3579;48.956;9.154;2024-03-06T02:43:48;18.60;59.10
7077;DHT22;3579;48.956;9.154;2024-03-06T02:46:14;18.60;59.10
7077;DHT22;3579;48.956;9.154;2024-03-06T02:48:40;18.60;59.10
7077;DHT22;3579;48.956;9.154;2024-03-06T02:51:06;18.60;59.10
7077;DHT22;3579;48.956;9.154;2024-03-06T02:53:32;18.60;59.10
7077;DHT22;3579;48.956;9.154;2024-03-06T02:55:58;18.60;59.20
7077;DHT22;3579;48.956;9.154;2024-03-06T02:58:24;18.60;59.20
7077;DHT22;3579;48.956;9.154;2024-03-06T03:00:50;18.50;59.10
7077;DHT22;3579;48.956;9.154;2024-03-06T03:03:16;18.50;59.10
7077;DHT22;3579;48.956;9.154;2024-03-06T03:05:42;18.60;59.10
7077;DHT22;3579;48.956;9.154;2024-03-06T03:08:09;18.50;59.10
7077;DHT22;3579;48.956;9.154;2024-03-06T03:10:35;18.50;59.10
7077;DHT22;3579;48.956;9.154;2024-03-06T03:13:01;18.50;59.10
7077;DHT22;3579;48.956;9.154;2024-03-06T03:15:27;18.50;59.20
7077;DHT22;3579;48.956;9.154;2024-03-06T03:17:53;18.50;59.20
7077;DHT22;3579;48.956;9.154;2024-03-06T03:20:19;18.50;59.80
7077;DHT22;3579;48.956;9.154;2024-03-06T03:22:46;18.50;59.20
7077;DHT22;3579;48.956;9.154;2024-03-06T03:25:13;18.50;59.20
7077;DHT22;3579;48.956;9.154;2024-03-06T03:27:42;18.50;59.20
7077;DHT22;3579;48.956;9.154;2024-03-06T03:30:10;18.50;59.20
7077;DHT22;3579;48.956;9.154;2024-03-06T03:32:37;18.50;59.20
7077;DHT22;3579;48.956;9.154;2024-03-06T03:35:07;18.50;59.20
7077;DHT22;3579;48.956;9.154;2024-03-06T03:37:33;18.50;59.20
7077;DHT22;3579;48.956;9.154;2024-03-06T03:40:00;18.50;59.30
7077;DHT22;3579;48.956;9.154;2024-03-06T03:42:26;18.50;59.20
7077;DHT22;3579;48.956;9.154;2024-03-06T03:44:52;18.40;59.20
7077;DHT22;3579;48.956;9.154;2024-03-06T03:47:18;18.40;59.20
7077;DHT22;3579;48.956;9.154;2024-03-06T03:49:44;18.40;59.20
7077;DHT22;3579;48.956;9.154;2024-03-06T03:52:10;18.50;59.30
7077;DHT22;3579;48.956;9.154;2024-03-06T03:54:37;18.40;59.20
7077;DHT22;3579;48.956;9.154;2024-03-06T03:57:03;18.40;59.20
7077;DHT22;3579;48.956;9.154;2024-03-06T03:59:29;18.40;59.20
7077;DHT22;3579;48.956;9.154;2024-03-06T04:01:56;18.40;59.30
7077;DHT22;3579;48.956;9.154;2024-03-06T04:04:23;18.40;59.30
7077;DHT22;3579;48.956;9.154;2024-03-06T04:06:49;18.40;59.20
7077;DHT22;3579;48.956;9.154;2024-03-06T04:09:15;18.40;59.20
7077;DHT22;3579;48.956;9.154;2024-03-06T04:11:41;18.40;59.20
7077;DHT22;3579;48.956;9.154;2024-03-06T04:14:07;18.40;59.30
7077;DHT22;3579;48.956;9.154;2024-03-06T04:16:34;18.40;59.30
7077;DHT22;3579;48.956;9.154;2024-03-06T04:19:00;18.40;59.30
7077;DHT22;3579;48.956;9.154;2024-03-06T04:21:27;18.40;59.40
7077;DHT22;3579;48.956;9.154;2024-03-06T04:23:53;18.40;59.30
7077;DHT22;3579;48.956;9.154;2024-03-06T04:26:19;18.40;59.30
7077;DHT22;3579;48.956;9.154;2024-03-06T04:28:46;18.40;59.30
7077;DHT22;3579;48.956;9.154;2024-03-06T04:31:12;18.40;59.30
7077;DHT22;3579;48.956;9.154;2024-03-06T04:33:38;18.40;59.30
7077;DHT22;3579;48.956;9.154;2024-03-06T04:36:04;18.40;59.30
7077;DHT22;3579;48.956;9.154;2024-03-06T04:38:34;18.40;59.30
7077;DHT22;3579;48.956;9.154;2024-03-06T04:41:00;18.40;59.30
7077;DHT22;3579;48.956;9.154;2024-03-06T04:43:26;18.30;59.40
7077;DHT22;3579;48.956;9.154;2024-03-06T04:45:52;18.30;59.30
7077;DHT22;3579;48.956;9.154;2024-03-06T04:48:18;18.30;59.40
7077;DHT22;3579;48.956;9.154;2024-03-06T04:50:44;18.30;59.40
7077;DHT22;3579;48.956;9.154;2024-03-06T04:53:10;18.30;59.40
7077;DHT22;3579;48.956;9.154;2024-03-06T04:55:37;18.30;59.30
7077;DHT22;3579;48.956;9.154;2024-03-06T04:58:04;18.30;59.30
7077;DHT22;3579;48.956;9.154;2024-03-06T05:00:30;18.40;59.30
7077;DHT22;3579;48.956;9.154;2024-03-06T05:02:56;18.40;59.30
7077;DHT22;3579;48.956;9.154;2024-03-06T05:05:23;18.30;59.30
7077;DHT22;3579;48.956;9.154;2024-03-06T05:07:49;18.40;59.30
7077;DHT22;3579;48.956;9.154;2024-03-06T05:10:15;18.40;59.30
7077;DHT22;3579;48.956;9.154;2024-03-06T05:12:44;18.30;59.20
7077;DHT22;3579;48.956;9.154;2024-03-06T05:15:10;18.30;59.30
7077;DHT22;3579;48.956;9.154;2024-03-06T05:17:36;18.30;59.30
7077;DHT22;3579;48.956;9.154;2024-03-06T05:20:02;18.30;59.40
7077;DHT22;3579;48.956;9.154;2024-03-06T05:22:29;18.30;59.50
7077;DHT22;3579;48.956;9.154;2024-03-06T05:24:55;18.30;59.40
7077;DHT22;3579;48.956;9.154;2024-03-06T05:27:21;18.30;59.40
7077;DHT22;3579;48.956;9.154;2024-03-06T05:29:48;18.30;59.40
7077;DHT22;3579;48.956;9.154;2024-03-06T05:32:14;18.30;59.40
7077;DHT22;3579;48.956;9.154;2024-03-06T05:34:40;18.30;59.40
7077;DHT22;3579;48.956;9.154;2024-03-06T05:37:06;18.30;59.40
7077;DHT22;3579;48.956;9.154;2024-03-06T05:39:32;18.30;59.40
7077;DHT22;3579;48.956;9.154;2024-03-06T05:42:03;18.20;59.30
7077;DHT22;3579;48.956;9.154;2024-03-06T05:44:30;18.20;59.40
7077;DHT22;3579;48.956;9.154;2024-03-06T05:47:01;18.20;59.50
7077;DHT22;3579;48.956;9.154;2024-03-06T05:49:28;18.20;59.40
7077;DHT22;3579;48.956;9.154;2024-03-06T05:51:55;18.20;59.40
7077;DHT22;3579;48.956;9.154;2024-03-06T05:54:21;18.20;59.40
7077;DHT22;3579;48.956;9.154;2024-03-06T05:56:48;18.20;59.40
7077;DHT22;3579;48.956;9.154;2024-03-06T05:59:18;18.30;59.50
7077;DHT22;3579;48.956;9.154;2024-03-06T06:01:44;18.30;59.40
7077;DHT22;3579;48.956;9.154;2024-03-06T06:04:12;18.30;59.50
7077;DHT22;3579;48.956;9.154;2024-03-06T06:06:39;18.30;59.40
7077;DHT22;3579;48.956;9.154;2024-03-06T06:09:05;18.30;59.50
7077;DHT22;3579;48.956;9.154;2024-03-06T06:11:33;18.30;59.60
7077;DHT22;3579;48.956;9.154;2024-03-06T06:13:59;18.20;59.60
7077;DHT22;3579;48.956;9.154;2024-03-06T06:16:25;18.20;59.70
7077;DHT22;3579;48.956;9.154;2024-03-06T06:18:52;18.20;59.70
7077;DHT22;3579;48.956;9.154;2024-03-06T06:21:18;18.20;59.70
7077;DHT22;3579;48.956;9.154;2024-03-06T06:23:45;18.20;59.70
7077;DHT22;3579;48.956;9.154;2024-03-06T06:26:12;18.20;59.70
7077;DHT22;3579;48.956;9.154;2024-03-06T06:28:41;18.20;59.70
7077;DHT22;3579;48.956;9.154;2024-03-06T06:31:08;18.20;59.70
7077;DHT22;3579;48.956;9.154;2024-03-06T06:33:34;18.20;59.70
7077;DHT22;3579;48.956;9.154;2024-03-06T06:36:00;18.20;59.70
7077;DHT22;3579;48.956;9.154;2024-03-06T06:38:26;18.20;59.70
7077;DHT22;3579;48.956;9.154;2024-03-06T06:40:52;18.10;59.70
7077;DHT22;3579;48.956;9.154;2024-03-06T06:43:18;18.10;59.70
7077;DHT22;3579;48.956;9.154;2024-03-06T06:45:44;18.20;59.70
7077;DHT22;3579;48.956;9.154;2024-03-06T06:48:10;18.20;59.70
7077;DHT22;3579;48.956;9.154;2024-03-06T06:50:36;18.20;59.70
7077;DHT22;3579;48.956;9.154;2024-03-06T06:53:02;18.20;59.70
7077;DHT22;3579;48.956;9.154;2024-03-06T06:55:28;18.20;59.70
7077;DHT22;3579;48.956;9.154;2024-03-06T06:57:54;18.20;59.70
7077;DHT22;3579;48.956;9.154;2024-03-06T07:00:21;18.20;59.80
7077;DHT22;3579;48.956;9.154;2024-03-06T07:02:49;18.20;59.90
7077;DHT22;3579;48.956;9.154;2024-03-06T07:05:15;18.20;59.90
7077;DHT22;3579;48.956;9.154;2024-03-06T07:07:41;18.20;60.10
7077;DHT22;3579;48.956;9.154;2024-03-06T07:10:08;18.20;60.20
7077;DHT22;3579;48.956;9.154;2024-03-06T07:12:36;18.30;60.40
7077;DHT22;3579;48.956;9.154;2024-03-06T07:15:03;18.30;60.20
7077;DHT22;3579;48.956;9.154;2024-03-06T07:17:29;18.40;60.50
7077;DHT22;3579;48.956;9.154;2024-03-06T07:19:55;18.50;60.70
7077;DHT22;3579;48.956;9.154;2024-03-06T07:22:22;18.50;60.50
7077;DHT22;3579;48.956;9.154;2024-03-06T07:24:48;18.60;60.90
7077;DHT22;3579;48.956;9.154;2024-03-06T07:27:14;18.70;61.00
7077;DHT22;3579;48.956;9.154;2024-03-06T07:29:40;18.70;60.90
7077;DHT22;3579;48.956;9.154;2024-03-06T07:32:06;18.80;61.10
7077;DHT22;3579;48.956;9.154;2024-03-06T07:34:33;18.90;61.20
7077;DHT22;3579;48.956;9.154;2024-03-06T07:36:59;19.00;61.20
7077;DHT22;3579;48.956;9.154;2024-03-06T07:39:25;19.00;61.30
7077;DHT22;3579;48.956;9.154;2024-03-06T07:41:51;19.10;61.10
7077;DHT22;3579;48.956;9.154;2024-03-06T07:44:17;19.10;61.10
7077;DHT22;3579;48.956;9.154;2024-03-06T07:46:43;19.20;61.00
7077;DHT22;3579;48.956;9.154;2024-03-06T07:49:09;19.20;60.90
7077;DHT22;3579;48.956;9.154;2024-03-06T07:51:35;19.20;60.80
7077;DHT22;3579;48.956;9.154;2024-03-06T07:54:02;19.30;60.80
7077;DHT22;3579;48.956;9.154;2024-03-06T07:56:30;19.30;60.60
7077;DHT22;3579;48.956;9.154;2024-03-06T07:59:00;19.40;60.70
7077;DHT22;3579;48.956;9.154;2024-03-06T08:01:28;19.40;60.60
7077;DHT22;3579;48.956;9.154;2024-03-06T08:03:58;19.50;60.60
7077;DHT22;3579;48.956;9.154;2024-03-06T08:06:24;19.50;60.40
7077;DHT22;3579;48.956;9.154;2024-03-06T08:08:51;19.60;60.80
7077;DHT22;3579;48.956;9.154;2024-03-06T08:11:17;19.70;60.60
7077;DHT22;3579;48.956;9.154;2024-03-06T08:13:43;19.90;60.90
7077;DHT22;3579;48.956;9.154;2024-03-06T08:16:09;19.90;61.40
7077;DHT22;3579;48.956;9.154;2024-03-06T08:18:36;20.00;60.90
7077;DHT22;3579;48.956;9.154;2024-03-06T08:21:02;20.10;61.10
7077;DHT22;3579;48.956;9.154;2024-03-06T08:23:32;20.30;61.40
7077;DHT22;3579;48.956;9.154;2024-03-06T08:25:59;20.30;61.40
7077;DHT22;3579;48.956;9.154;2024-03-06T08:28:26;20.40;61.00
7077;DHT22;3579;48.956;9.154;2024-03-06T08:30:52;20.50;61.30
7077;DHT22;3579;48.956;9.154;2024-03-06T08:33:18;20.60;61.60
7077;DHT22;3579;48.956;9.154;2024-03-06T08:35:46;20.60;61.40
7077;DHT22;3579;48.956;9.154;2024-03-06T08:38:12;20.70;61.50
7077;DHT22;3579;48.956;9.154;2024-03-06T08:40:38;20.60;61.70
7077;DHT22;3579;48.956;9.154;2024-03-06T08:43:04;20.60;61.70
7077;DHT22;3579;48.956;9.154;2024-03-06T08:45:30;20.70;61.70
7077;DHT22;3579;48.956;9.154;2024-03-06T08:47:57;20.70;61.20
7077;DHT22;3579;48.956;9.154;2024-03-06T08:50:23;20.70;61.20
7077;DHT22;3579;48.956;9.154;2024-03-06T08:52:50;20.80;61.20
7077;DHT22;3579;48.956;9.154;2024-03-06T08:55:17;20.80;61.20
7077;DHT22;3579;48.956;9.154;2024-03-06T08:57:43;20.90;61.30
7077;DHT22;3579;48.956;9.154;2024-03-06T09:00:09;20.90;60.90
7077;DHT22;3579;48.956;9.154;2024-03-06T09:02:39;20.90;60.80
7077;DHT22;3579;48.956;9.154;2024-03-06T09:05:10;21.00;60.90
7077;DHT22;3579;48.956;9.154;2024-03-06T09:07:37;21.10;61.00
7077;DHT22;3579;48.956;9.154;2024-03-06T09:10:10;21.10;60.90
7077;DHT22;3579;48.956;9.154;2024-03-06T09:12:37;21.20;60.90
7077;DHT22;3579;48.956;9.154;2024-03-06T09:15:04;21.30;61.00
7077;DHT22;3579;48.956;9.154;2024-03-06T09:17:30;21.40;60.60
7077;DHT22;3579;48.956;9.154;2024-03-06T09:19:56;21.40;60.80
7077;DHT22;3579;48.956;9.154;2024-03-06T09:22:22;21.40;60.80
7077;DHT22;3579;48.956;9.154;2024-03-06T09:24:48;21.50;60.70
7077;DHT22;3579;48.956;9.154;2024-03-06T09:27:15;21.50;61.00
7077;DHT22;3579;48.956;9.154;2024-03-06T09:29:42;21.50;60.60
7077;DHT22;3579;48.956;9.154;2024-03-06T09:32:08;21.60;60.90
7077;DHT22;3579;48.956;9.154;2024-03-06T09:34:34;21.60;60.70
7077;DHT22;3579;48.956;9.154;2024-03-06T09:37:00;21.70;60.80
7077;DHT22;3579;48.956;9.154;2024-03-06T09:39:26;21.70;60.90
7077;DHT22;3579;48.956;9.154;2024-03-06T09:41:55;21.70;61.00
7077;DHT22;3579;48.956;9.154;2024-03-06T09:44:22;21.80;61.10
7077;DHT22;3579;48.956;9.154;2024-03-06T09:46:49;21.80;60.80
7077;DHT22;3579;48.956;9.154;2024-03-06T09:49:18;21.90;60.90
7077;DHT22;3579;48.956;9.154;2024-03-06T09:51:48;22.00;60.80
7077;DHT22;3579;48.956;9.154;2024-03-06T09:54:19;22.00;60.90
7077;DHT22;3579;48.956;9.154;2024-03-06T09:56:47;21.80;59.90
7077;DHT22;3579;48.956;9.154;2024-03-06T09:59:14;21.70;59.80
7077;DHT22;3579;48.956;9.154;2024-03-06T10:01:49;21.60;59.60
7077;DHT22;3579;48.956;9.154;2024-03-06T10:04:23;21.60;59.40
7077;DHT22;3579;48.956;9.154;2024-03-06T10:06:55;21.60;59.00
7077;DHT22;3579;48.956;9.154;2024-03-06T10:09:21;21.60;58.40
7077;DHT22;3579;48.956;9.154;2024-03-06T10:11:47;21.60;58.20
7077;DHT22;3579;48.956;9.154;2024-03-06T10:14:14;21.60;58.20
7077;DHT22;3579;48.956;9.154;2024-03-06T10:16:59;21.60;57.60
7077;DHT22;3579;48.956;9.154;2024-03-06T10:19:27;21.80;58.00
7077;DHT22;3579;48.956;9.154;2024-03-06T10:21:54;21.90;57.70
7077;DHT22;3579;48.956;9.154;2024-03-06T10:24:31;21.90;57.90
7077;DHT22;3579;48.956;9.154;2024-03-06T10:26:58;22.00;58.10
7077;DHT22;3579;48.956;9.154;2024-03-06T10:29:26;22.10;58.10
7077;DHT22;3579;48.956;9.154;2024-03-06T10:31:54;22.20;58.20
7077;DHT22;3579;48.956;9.154;2024-03-06T10:34:21;22.10;57.60
7077;DHT22;3579;48.956;9.154;2024-03-06T10:36:53;22.20;57.70
7077;DHT22;3579;48.956;9.154;2024-03-06T10:39:20;22.20;57.80
7077;DHT22;3579;48.956;9.154;2024-03-06T10:41:46;22.30;57.80
7077;DHT22;3579;48.956;9.154;2024-03-06T10:44:14;21.40;56.90
7077;DHT22;3579;48.956;9.154;2024-03-06T10:46:44;22.20;57.70
7077;DHT22;3579;48.956;9.154;2024-03-06T10:49:14;22.10;57.70
7077;DHT22;3579;48.956;9.154;2024-03-06T10:51:42;22.00;57.30
7077;DHT22;3579;48.956;9.154;2024-03-06T10:54:09;22.00;57.10
7077;DHT22;3579;48.956;9.154;2024-03-06T10:56:40;22.00;56.90
7077;DHT22;3579;48.956;9.154;2024-03-06T10:59:12;22.00;56.90
7077;DHT22;3579;48.956;9.154;2024-03-06T11:01:39;21.90;57.20
7077;DHT22;3579;48.956;9.154;2024-03-06T11:04:06;21.90;56.80
7077;DHT22;3579;48.956;9.154;2024-03-06T11:06:33;21.90;56.90
7077;DHT22;3579;48.956;9.154;2024-03-06T11:09:01;21.90;56.70
7077;DHT22;3579;48.956;9.154;2024-03-06T11:11:29;21.90;56.70
7077;DHT22;3579;48.956;9.154;2024-03-06T11:14:01;21.90;56.50
7077;DHT22;3579;48.956;9.154;2024-03-06T11:16:30;21.90;56.50
7077;DHT22;3579;48.956;9.154;2024-03-06T11:19:06;21.90;56.60
7077;DHT22;3579;48.956;9.154;2024-03-06T11:21:33;21.90;56.70
7077;DHT22;3579;48.956;9.154;2024-03-06T11:24:12;22.00;56.30
7077;DHT22;3579;48.956;9.154;2024-03-06T11:26:43;21.90;56.40
7077;DHT22;3579;48.956;9.154;2024-03-06T11:29:09;22.00;57.20
7077;DHT22;3579;48.956;9.154;2024-03-06T11:31:35;22.00;56.40
7077;DHT22;3579;48.956;9.154;2024-03-06T11:34:04;22.00;56.40
7077;DHT22;3579;48.956;9.154;2024-03-06T11:36:30;22.00;55.60
7077;DHT22;3579;48.956;9.154;2024-03-06T11:39:02;21.70;51.80
7077;DHT22;3579;48.956;9.154;2024-03-06T11:41:31;21.10;51.20
7077;DHT22;3579;48.956;9.154;2024-03-06T11:44:00;20.90;52.00
7077;DHT22;3579;48.956;9.154;2024-03-06T11:46:49;20.70;51.60
7077;DHT22;3579;48.956;9.154;2024-03-06T11:49:29;20.50;51.60
7077;DHT22;3579;48.956;9.154;2024-03-06T11:54:25;20.10;51.50
7077;DHT22;3579;48.956;9.154;2024-03-06T11:56:56;20.00;52.10
7077;DHT22;3579;48.956;9.154;2024-03-06T11:59:23;19.90;51.90
7077;DHT22;3579;48.956;9.154;2024-03-06T12:01:54;20.00;52.90
7077;DHT22;3579;48.956;9.154;2024-03-06T12:04:21;19.80;52.20
7077;DHT22;3579;48.956;9.154;2024-03-06T12:06:48;19.60;52.40
7077;DHT22;3579;48.956;9.154;2024-03-06T12:09:15;19.60;53.40
7077;DHT22;3579;48.956;9.154;2024-03-06T12:11:41;20.00;53.50
7077;DHT22;3579;48.956;9.154;2024-03-06T12:14:16;20.30;54.20
7077;DHT22;3579;48.956;9.154;2024-03-06T12:16:56;20.60;54.50
7077;DHT22;3579;48.956;9.154;2024-03-06T12:19:26;20.70;54.70
7077;DHT22;3579;48.956;9.154;2024-03-06T12:21:52;20.70;54.70
7077;DHT22;3579;48.956;9.154;2024-03-06T12:24:20;20.80;54.90
7077;DHT22;3579;48.956;9.154;2024-03-06T12:26:46;20.80;54.90
7077;DHT22;3579;48.956;9.154;2024-03-06T12:29:18;20.80;54.80
7077;DHT22;3579;48.956;9.154;2024-03-06T12:31:47;20.70;54.80
7077;DHT22;3579;48.956;9.154;2024-03-06T12:34:16;22.40;56.30
7077;DHT22;3579;48.956;9.154;2024-03-06T12:36:43;20.80;55.00
7077;DHT22;3579;48.956;9.154;2024-03-06T12:39:10;20.80;55.10
7077;DHT22;3579;48.956;9.154;2024-03-06T12:41:40;20.80;55.00
7077;DHT22;3579;48.956;9.154;2024-03-06T12:44:06;20.80;55.00
7077;DHT22;3579;48.956;9.154;2024-03-06T12:46:35;20.80;55.10
7077;DHT22;3579;48.956;9.154;2024-03-06T12:49:04;20.80;55.30
7077;DHT22;3579;48.956;9.154;2024-03-06T12:51:30;20.80;55.20
7077;DHT22;3579;48.956;9.154;2024-03-06T12:53:58;20.80;55.30
7077;DHT22;3579;48.956;9.154;2024-03-06T12:56:24;20.80;55.20
7077;DHT22;3579;48.956;9.154;2024-03-06T12:58:51;20.80;55.30
7077;DHT22;3579;48.956;9.154;2024-03-06T13:01:18;20.80;55.30
7077;DHT22;3579;48.956;9.154;2024-03-06T13:03:44;20.80;55.50
7077;DHT22;3579;48.956;9.154;2024-03-06T13:06:10;20.80;55.60
7077;DHT22;3579;48.956;9.154;2024-03-06T13:08:36;20.80;55.60
7077;DHT22;3579;48.956;9.154;2024-03-06T13:11:02;20.80;55.80
7077;DHT22;3579;48.956;9.154;2024-03-06T13:13:29;20.80;55.90
7077;DHT22;3579;48.956;9.154;2024-03-06T13:15:56;20.80;56.60
7077;DHT22;3579;48.956;9.154;2024-03-06T13:18:22;20.80;56.10
7077;DHT22;3579;48.956;9.154;2024-03-06T13:20:48;20.70;56.20
7077;DHT22;3579;48.956;9.154;2024-03-06T13:23:14;20.70;56.30
7077;DHT22;3579;48.956;9.154;2024-03-06T13:25:40;20.70;56.40
7077;DHT22;3579;48.956;9.154;2024-03-06T13:28:07;20.70;56.50
7077;DHT22;3579;48.956;9.154;2024-03-06T13:30:34;20.70;56.50
7077;DHT22;3579;48.956;9.154;2024-03-06T13:33:00;20.70;56.60
7077;DHT22;3579;48.956;9.154;2024-03-06T13:35:27;20.60;56.70
7077;DHT22;3579;48.956;9.154;2024-03-06T13:37:54;20.60;56.70
7077;DHT22;3579;48.956;9.154;2024-03-06T13:40:20;20.60;56.80
7077;DHT22;3579;48.956;9.154;2024-03-06T13:42:47;20.60;56.80
7077;DHT22;3579;48.956;9.154;2024-03-06T13:45:13;20.60;56.90
7077;DHT22;3579;48.956;9.154;2024-03-06T13:47:44;18.80;55.50
7077;DHT22;3579;48.956;9.154;2024-03-06T13:50:12;20.60;56.90
7077;DHT22;3579;48.956;9.154;2024-03-06T13:52:39;20.50;56.90
7077;DHT22;3579;48.956;9.154;2024-03-06T13:55:06;20.50;57.00
7077;DHT22;3579;48.956;9.154;2024-03-06T13:57:33;20.50;57.00
7077;DHT22;3579;48.956;9.154;2024-03-06T14:00:04;20.50;57.10
7077;DHT22;3579;48.956;9.154;2024-03-06T14:02:31;20.50;57.10
7077;DHT22;3579;48.956;9.154;2024-03-06T14:04:58;20.50;57.10
7077;DHT22;3579;48.956;9.154;2024-03-06T14:07:24;20.50;57.10
7077;DHT22;3579;48.956;9.154;2024-03-06T14:09:50;20.50;57.20
7077;DHT22;3579;48.956;9.154;2024-03-06T14:12:17;20.40;57.20
7077;DHT22;3579;48.956;9.154;2024-03-06T14:14:43;20.40;56.90
7077;DHT22;3579;48.956;9.154;2024-03-06T14:17:11;20.40;57.20
7077;DHT22;3579;48.956;9.154;2024-03-06T14:19:38;20.30;57.10
7077;DHT22;3579;48.956;9.154;2024-03-06T14:22:09;20.30;57.10
7077;DHT22;3579;48.956;9.154;2024-03-06T14:24:35;20.30;57.10
7077;DHT22;3579;48.956;9.154;2024-03-06T14:27:02;20.30;57.10
7077;DHT22;3579;48.956;9.154;2024-03-06T14:29:29;20.20;57.00
7077;DHT22;3579;48.956;9.154;2024-03-06T14:31:56;20.30;57.10
7077;DHT22;3579;48.956;9.154;2024-03-06T14:34:22;20.20;57.00
7077;DHT22;3579;48.956;9.154;2024-03-06T14:36:51;20.20;57.10
7077;DHT22;3579;48.956;9.154;2024-03-06T14:39:18;20.20;57.10
7077;DHT22;3579;48.956;9.154;2024-03-06T14:41:44;20.20;57.10
7077;DHT22;3579;48.956;9.154;2024-03-06T14:44:12;20.10;57.00
7077;DHT22;3579;48.956;9.154;2024-03-06T14:46:40;20.10;57.10
7077;DHT22;3579;48.956;9.154;2024-03-06T14:49:07;20.10;57.10
7077;DHT22;3579;48.956;9.154;2024-03-06T14:51:34;20.10;57.10
7077;DHT22;3579;48.956;9.154;2024-03-06T14:54:01;20.10;57.10
7077;DHT22;3579;48.956;9.154;2024-03-06T14:56:27;20.00;57.00
7077;DHT22;3579;48.956;9.154;2024-03-06T14:58:53;20.00;57.00
7077;DHT22;3579;48.956;9.154;2024-03-06T15:01:19;20.00;57.10
7077;DHT22;3579;48.956;9.154;2024-03-06T15:03:45;20.00;57.10
7077;DHT22;3579;48.956;9.154;2024-03-06T15:06:12;20.00;57.10
7077;DHT22;3579;48.956;9.154;2024-03-06T15:08:39;20.00;57.10
7077;DHT22;3579;48.956;9.154;2024-03-06T15:11:06;19.90;57.10
7077;DHT22;3579;48.956;9.154;2024-03-06T15:13:32;19.90;57.10
7077;DHT22;3579;48.956;9.154;2024-03-06T15:15:59;19.90;57.10
7077;DHT22;3579;48.956;9.154;2024-03-06T15:18:25;19.90;57.20
7077;DHT22;3579;48.956;9.154;2024-03-06T15:20:51;19.90;57.20
7077;DHT22;3579;48.956;9.154;2024-03-06T15:23:18;19.90;57.20
7077;DHT22;3579;48.956;9.154;2024-03-06T15:25:44;19.90;57.30
7077;DHT22;3579;48.956;9.154;2024-03-06T15:28:13;19.80;57.20
7077;DHT22;3579;48.956;9.154;2024-03-06T15:30:39;19.80;57.30
7077;DHT22;3579;48.956;9.154;2024-03-06T15:33:05;19.80;57.20
7077;DHT22;3579;48.956;9.154;2024-03-06T15:35:32;19.80;57.20
7077;DHT22;3579;48.956;9.154;2024-03-06T15:37:58;19.80;57.30
7077;DHT22;3579;48.956;9.154;2024-03-06T15:40:25;19.80;57.30
7077;DHT22;3579;48.956;9.154;2024-03-06T15:42:51;19.70;57.30
7077;DHT22;3579;48.956;9.154;2024-03-06T15:45:17;19.80;57.40
7077;DHT22;3579;48.956;9.154;2024-03-06T15:47:43;19.70;57.30
7077;DHT22;3579;48.956;9.154;2024-03-06T15:50:11;19.70;57.40
7077;DHT22;3579;48.956;9.154;2024-03-06T15:52:38;19.70;57.90
7077;DHT22;3579;48.956;9.154;2024-03-06T15:55:07;19.70;57.40
7077;DHT22;3579;48.956;9.154;2024-03-06T15:57:35;19.70;57.50
7077;DHT22;3579;48.956;9.154;2024-03-06T16:00:06;19.60;57.40
7077;DHT22;3579;48.956;9.154;2024-03-06T16:02:32;19.60;57.40
7077;DHT22;3579;48.956;9.154;2024-03-06T16:04:58;19.60;57.40